createdAt,value
2019-01-04T00:00:27.195Z,101643.84
2019-01-04T00:02:54.626Z,101641.58
2019-01-04T00:05:22.092Z,101643.31
2019-01-04T00:07:49.525Z,101633.63
2019-01-04T00:10:16.996Z,101628.54
2019-01-04T00:12:44.429Z,101624.78
2019-01-04T00:15:11.898Z,101614.52
2019-01-04T00:17:39.361Z,101622.55
2019-01-04T00:20:06.822Z,101617.63
2019-01-04T00:22:34.288Z,101618.83
2019-01-04T00:25:01.719Z,101630.81
2019-01-04T00:27:29.421Z,101637.88
2019-01-04T00:29:56.856Z,101638.36
2019-01-04T00:32:24.316Z,101636.93
2019-01-04T00:34:51.757Z,101633.84
2019-01-04T00:37:19.261Z,101629.70
2019-01-04T00:39:46.780Z,101635.23
2019-01-04T00:42:14.275Z,101630.22
2019-01-04T00:44:41.719Z,101632.47
2019-01-04T00:47:10.085Z,101620.52
2019-01-04T00:49:37.616Z,101620.17
2019-01-04T00:52:05.055Z,101623.09
2019-01-04T00:54:32.506Z,101619.08
2019-01-04T00:57:02.898Z,101620.72
2019-01-04T00:59:34.888Z,101623.03
2019-01-04T01:02:03.912Z,101622.16
2019-01-04T01:04:53.929Z,101625.78
2019-01-04T01:07:22.243Z,101627.41
2019-01-04T01:10:01.599Z,101638.32
2019-01-04T01:12:30.437Z,101631.89
2019-01-04T01:15:03.899Z,101626.27
2019-01-04T01:17:38.031Z,101627.66
2019-01-04T01:20:08.334Z,101621.30
2019-01-04T01:22:58.329Z,101616.11
2019-01-04T01:25:26.561Z,101624.89
2019-01-04T01:28:14.787Z,101627.59
2019-01-04T01:30:54.652Z,101635.20
2019-01-04T01:33:29.270Z,101638.21
2019-01-04T01:36:14.232Z,101637.91
2019-01-04T01:38:59.467Z,101639.66
2019-01-04T01:41:50.281Z,101647.30
2019-01-04T01:44:29.517Z,101648.01
2019-01-04T01:46:59.688Z,101648.01
2019-01-04T01:49:49.785Z,101653.95
2019-01-04T01:52:21.918Z,101650.06
2019-01-04T01:54:49.378Z,101649.41
2019-01-04T01:57:16.916Z,101655.34
2019-01-04T01:59:44.367Z,101659.74
2019-01-04T02:02:11.807Z,101658.66
2019-01-04T02:04:39.265Z,101655.79
2019-01-04T02:07:06.714Z,101663.41
2019-01-04T02:09:34.168Z,101663.69
2019-01-04T02:12:01.648Z,101657.99
2019-01-04T02:14:29.755Z,101659.56
2019-01-04T02:16:57.226Z,101659.97
2019-01-04T02:19:24.673Z,101652.15
2019-01-04T02:21:52.181Z,101656.05
2019-01-04T02:24:20.629Z,101654.96
2019-01-04T02:26:48.156Z,101646.81
2019-01-04T02:29:15.617Z,101645.22
2019-01-04T02:31:43.073Z,101634.20
2019-01-04T02:34:10.523Z,101626.77
2019-01-04T02:36:37.963Z,101634.79
2019-01-04T02:39:05.403Z,101642.87
2019-01-04T02:41:32.881Z,101636.20
2019-01-04T02:44:00.300Z,101647.52
2019-01-04T02:46:27.759Z,101649.32
2019-01-04T02:48:55.204Z,101649.95
2019-01-04T02:51:22.688Z,101644.24
2019-01-04T02:53:50.112Z,101645.19
2019-01-04T02:56:17.559Z,101643.03
2019-01-04T02:58:45.027Z,101643.45
2019-01-04T03:01:12.891Z,101640.61
2019-01-04T03:03:40.363Z,101643.91
2019-01-04T03:06:07.795Z,101645.65
2019-01-04T03:08:35.290Z,101641.48
2019-01-04T03:11:02.741Z,101635.20
2019-01-04T03:13:30.190Z,101641.13
2019-01-04T03:15:57.641Z,101635.10
2019-01-04T03:18:25.120Z,101635.81
2019-01-04T03:20:52.574Z,101630.23
2019-01-04T03:23:20.046Z,101625.64
2019-01-04T03:25:47.504Z,101634.97
2019-01-04T03:28:14.994Z,101633.63
2019-01-04T03:30:42.437Z,101628.38
2019-01-04T03:33:09.901Z,101635.67
2019-01-04T03:35:37.364Z,101627.17
2019-01-04T03:38:04.823Z,101628.16
2019-01-04T03:40:32.295Z,101623.91
2019-01-04T03:42:59.943Z,101616.87
2019-01-04T03:45:27.424Z,101623.19
2019-01-04T03:47:54.865Z,101619.45
2019-01-04T03:50:22.311Z,101615.59
2019-01-04T03:52:49.785Z,101613.16
2019-01-04T03:55:17.250Z,101611.78
2019-01-04T03:57:44.725Z,101606.83
2019-01-04T04:00:12.183Z,101611.12
2019-01-04T04:02:39.624Z,101606.74
2019-01-04T04:05:07.151Z,101603.42
2019-01-04T04:07:34.602Z,101602.48
2019-01-04T04:10:02.062Z,101589.73
2019-01-04T04:12:30.032Z,101595.66
2019-01-04T04:14:57.479Z,101594.88
2019-01-04T04:17:24.931Z,101596.87
2019-01-04T04:19:52.413Z,101587.96
2019-01-04T04:22:19.888Z,101591.83
2019-01-04T04:24:47.325Z,101591.17
2019-01-04T04:27:14.781Z,101594.56
2019-01-04T04:29:42.229Z,101604.94
2019-01-04T04:32:09.708Z,101607.27
2019-01-04T04:34:38.588Z,101601.00
2019-01-04T04:37:06.133Z,101598.47
2019-01-04T04:39:33.568Z,101590.94
2019-01-04T04:42:01.017Z,101599.63
2019-01-04T04:44:28.483Z,101597.55
2019-01-04T04:46:55.957Z,101596.62
2019-01-04T04:49:23.386Z,101600.23
2019-01-04T04:51:50.807Z,101600.31
2019-01-04T04:54:18.266Z,101605.02
2019-01-04T04:56:45.727Z,101597.36
2019-01-04T04:59:13.174Z,101593.83
2019-01-04T05:01:40.621Z,101599.23
2019-01-04T05:04:08.092Z,101588.55
2019-01-04T05:06:35.519Z,101580.29
2019-01-04T05:09:02.948Z,101581.80
2019-01-04T05:11:30.422Z,101578.11
2019-01-04T05:13:57.875Z,101581.22
2019-01-04T05:16:25.330Z,101583.22
2019-01-04T05:18:52.774Z,101588.52
2019-01-04T05:21:20.233Z,101597.45
2019-01-04T05:23:47.702Z,101594.64
2019-01-04T05:26:15.182Z,101590.55
2019-01-04T05:28:42.627Z,101589.78
2019-01-04T05:31:10.090Z,101597.15
2019-01-04T05:33:37.545Z,101586.00
2019-01-04T05:36:05.005Z,101592.02
2019-01-04T05:38:32.465Z,101595.78
2019-01-04T05:41:00.308Z,101591.56
2019-01-04T05:43:27.758Z,101590.84
2019-01-04T05:45:55.218Z,101585.38
2019-01-04T05:48:22.664Z,101583.09
2019-01-04T05:50:50.141Z,101589.69
2019-01-04T05:53:17.577Z,101587.66
2019-01-04T05:55:45.007Z,101572.83
2019-01-04T05:58:12.483Z,101570.39
2019-01-04T06:00:39.946Z,101558.39
2019-01-04T06:03:07.424Z,101558.59
2019-01-04T06:05:35.930Z,101558.22
2019-01-04T06:08:03.399Z,101550.32
2019-01-04T06:10:30.900Z,101553.03
2019-01-04T06:12:58.353Z,101558.19
2019-01-04T06:15:25.819Z,101553.96
2019-01-04T06:17:53.365Z,101557.01
2019-01-04T06:20:20.905Z,101567.10
2019-01-04T06:22:48.379Z,101553.39
2019-01-04T06:25:15.856Z,101553.62
2019-01-04T06:27:44.175Z,101548.89
2019-01-04T06:30:10.832Z,101543.53
2019-01-04T06:32:38.284Z,101539.53
2019-01-04T06:35:05.727Z,101533.04
2019-01-04T06:37:33.189Z,101544.92
2019-01-04T06:40:00.634Z,101549.28
2019-01-04T06:42:28.093Z,101536.06
2019-01-04T06:44:56.549Z,101540.40
2019-01-04T06:47:24.094Z,101542.58
2019-01-04T06:49:51.549Z,101549.41
2019-01-04T06:52:19.047Z,101550.97
2019-01-04T06:54:58.184Z,101555.91
2019-01-04T06:57:26.243Z,101547.75
2019-01-04T06:59:53.693Z,101555.44
2019-01-04T07:02:21.143Z,101555.00
2019-01-04T07:04:48.584Z,101563.16
2019-01-04T07:07:16.046Z,101570.18
2019-01-04T07:09:43.478Z,101562.81
2019-01-04T07:12:10.935Z,101564.03
2019-01-04T07:14:38.407Z,101557.59
2019-01-04T07:17:05.841Z,101553.85
2019-01-04T07:19:33.302Z,101555.03
2019-01-04T07:22:00.756Z,101550.62
2019-01-04T07:24:28.233Z,101556.44
2019-01-04T07:26:55.717Z,101559.25
2019-01-04T07:29:23.164Z,101559.27
2019-01-04T07:31:50.619Z,101566.77
2019-01-04T07:34:18.245Z,101579.73
2019-01-04T07:36:45.550Z,101580.60
2019-01-04T07:39:13.020Z,101571.95
2019-01-04T07:41:40.478Z,101569.89
2019-01-04T07:44:07.923Z,101574.52
2019-01-04T07:46:35.397Z,101575.56
2019-01-04T07:49:02.833Z,101584.98
2019-01-04T07:51:30.540Z,101570.83
2019-01-04T07:53:58.003Z,101575.67
2019-01-04T07:56:25.493Z,101578.69
2019-01-04T07:58:53.768Z,101582.92
2019-01-04T08:01:21.338Z,101577.36
2019-01-04T08:03:48.819Z,101576.67
2019-01-04T08:06:16.401Z,101563.70
2019-01-04T08:08:43.918Z,101565.11
2019-01-04T08:11:11.401Z,101568.97
2019-01-04T08:13:38.868Z,101577.38
2019-01-04T08:16:06.359Z,101576.30
2019-01-04T08:18:33.840Z,101584.46
2019-01-04T08:21:01.301Z,101583.78
2019-01-04T08:23:28.758Z,101577.41
2019-01-04T08:25:56.251Z,101579.51
2019-01-04T08:28:23.739Z,101569.71
2019-01-04T08:30:51.307Z,101565.11
2019-01-04T08:33:18.752Z,101568.35
2019-01-04T08:35:46.197Z,101574.62
2019-01-04T08:38:13.694Z,101570.50
2019-01-04T08:40:41.131Z,101570.02
2019-01-04T08:43:08.585Z,101568.87
2019-01-04T08:45:36.058Z,101568.25
2019-01-04T08:48:03.496Z,101572.80
2019-01-04T08:50:30.943Z,101570.84
2019-01-04T08:52:58.362Z,101566.42
2019-01-04T08:55:25.836Z,101562.09
2019-01-04T08:57:53.278Z,101554.59
2019-01-04T09:00:20.748Z,101552.57
2019-01-04T09:02:48.197Z,101557.64
2019-01-04T09:05:16.159Z,101546.90
2019-01-04T09:07:44.470Z,101547.00
2019-01-04T09:10:11.920Z,101558.42
2019-01-04T09:12:39.364Z,101543.61
2019-01-04T09:15:06.797Z,101547.16
2019-01-04T09:17:34.260Z,101547.16
2019-01-04T09:20:01.698Z,101549.63
2019-01-04T09:22:29.147Z,101547.62
2019-01-04T09:24:56.586Z,101551.41
2019-01-04T09:27:24.046Z,101555.45
2019-01-04T09:29:51.499Z,101542.30
2019-01-04T09:32:18.959Z,101538.33
2019-01-04T09:34:46.392Z,101530.89
2019-01-04T09:37:13.847Z,101527.69
2019-01-04T09:39:41.305Z,101523.05
2019-01-04T09:42:11.267Z,101527.95
2019-01-04T09:44:40.034Z,101514.50
2019-01-04T09:47:07.664Z,101525.26
2019-01-04T09:49:35.142Z,101509.69
2019-01-04T09:52:03.232Z,101514.80
2019-01-04T09:54:31.444Z,101516.80
2019-01-04T09:57:00.028Z,101512.06
2019-01-04T09:59:28.110Z,101502.95
2019-01-04T10:01:56.444Z,101504.58
2019-01-04T10:04:24.668Z,101508.45
2019-01-04T10:06:52.835Z,101493.92
2019-01-04T10:09:20.478Z,101492.61
2019-01-04T10:11:47.991Z,101492.17
2019-01-04T10:14:15.454Z,101495.66
2019-01-04T10:16:42.922Z,101486.61
2019-01-04T10:19:10.351Z,101490.98
2019-01-04T10:21:37.807Z,101484.67
2019-01-04T10:24:05.278Z,101492.06
2019-01-04T10:26:32.731Z,101475.78
2019-01-04T10:29:01.061Z,101474.16
2019-01-04T10:31:28.510Z,101461.91
2019-01-04T10:33:56.002Z,101455.66
2019-01-04T10:36:23.440Z,101452.82
2019-01-04T10:38:50.895Z,101458.28
2019-01-04T10:41:18.386Z,101452.84
2019-01-04T10:43:45.857Z,101448.52
2019-01-04T10:46:16.473Z,101451.09
2019-01-04T10:48:43.936Z,101436.63
2019-01-04T10:51:11.371Z,101438.91
2019-01-04T10:53:38.846Z,101436.79
2019-01-04T10:56:06.286Z,101443.59
2019-01-04T10:58:34.874Z,101432.48
2019-01-04T11:01:02.387Z,101436.20
2019-01-04T11:03:29.816Z,101433.26
2019-01-04T11:05:57.298Z,101417.08
2019-01-04T11:08:24.781Z,101425.19
2019-01-04T11:10:52.979Z,101418.71
2019-01-04T11:13:20.546Z,101417.16
2019-01-04T11:15:47.984Z,101421.24
2019-01-04T11:18:15.432Z,101433.58
2019-01-04T11:20:42.873Z,101421.16
2019-01-04T11:23:31.829Z,101412.24
2019-01-04T11:26:03.743Z,101404.03
2019-01-04T11:28:34.707Z,101406.72
2019-01-04T11:31:06.843Z,101408.58
2019-01-04T11:33:34.268Z,101406.00
2019-01-04T11:36:32.079Z,101405.80
2019-01-04T11:39:01.967Z,101393.06
2019-01-04T11:41:36.903Z,101397.13
2019-01-04T11:44:17.707Z,101391.83
2019-01-04T11:46:46.595Z,101402.31
2019-01-04T11:49:40.984Z,101397.86
2019-01-04T11:52:10.974Z,101395.89
2019-01-04T11:54:38.735Z,101392.89
2019-01-04T11:57:06.431Z,101394.27
2019-01-04T11:59:34.040Z,101371.73
2019-01-04T12:02:01.515Z,101365.34
2019-01-04T12:04:28.957Z,101364.38
2019-01-04T12:06:56.456Z,101361.42
2019-01-04T12:09:23.874Z,101354.84
2019-01-04T12:11:52.408Z,101349.74
2019-01-04T12:14:19.766Z,101359.94
2019-01-04T12:16:47.213Z,101366.08
2019-01-04T12:19:14.712Z,101364.81
2019-01-04T12:21:42.133Z,101362.08
2019-01-04T12:24:10.521Z,101365.59
2019-01-04T12:26:38.031Z,101368.55
2019-01-04T12:29:06.377Z,101369.26
2019-01-04T12:31:32.979Z,101365.91
2019-01-04T12:34:01.416Z,101359.30
2019-01-04T12:36:29.754Z,101354.27
2019-01-04T12:38:57.202Z,101351.45
2019-01-04T12:41:24.672Z,101354.27
2019-01-04T12:43:52.107Z,101336.62
2019-01-04T12:46:19.563Z,101344.86
2019-01-04T12:48:47.050Z,101326.53
2019-01-04T12:51:14.506Z,101329.91
2019-01-04T12:53:41.977Z,101319.18
2019-01-04T12:56:09.480Z,101326.92
2019-01-04T12:58:36.950Z,101317.02
2019-01-04T13:01:04.579Z,101317.99
2019-01-04T13:03:32.030Z,101321.98
2019-01-04T13:05:59.503Z,101328.34
2019-01-04T13:08:26.974Z,101324.17
2019-01-04T13:10:55.227Z,101328.06
2019-01-04T13:13:22.694Z,101328.12
2019-01-04T13:15:50.149Z,101314.04
2019-01-04T13:18:17.597Z,101318.05
2019-01-04T13:20:45.461Z,101312.30
2019-01-04T13:23:13.002Z,101313.32
2019-01-04T13:25:40.476Z,101305.05
2019-01-04T13:28:07.958Z,101308.61
2019-01-04T13:30:35.383Z,101310.28
2019-01-04T13:33:02.847Z,101299.78
2019-01-04T13:35:30.328Z,101296.66
2019-01-04T13:37:58.064Z,101294.28
2019-01-04T13:40:25.564Z,101292.55
2019-01-04T13:42:53.018Z,101294.55
2019-01-04T13:45:21.279Z,101289.66
2019-01-04T13:47:48.762Z,101289.15
2019-01-04T13:50:16.201Z,101279.01
2019-01-04T13:52:43.690Z,101290.72
2019-01-04T13:55:11.315Z,101281.23
2019-01-04T13:57:38.804Z,101279.89
2019-01-04T14:00:07.167Z,101282.74
2019-01-04T14:02:35.003Z,101280.77
2019-01-04T14:05:02.777Z,101281.34
2019-01-04T14:07:30.244Z,101280.91
2019-01-04T14:09:57.872Z,101286.36
2019-01-04T14:12:25.305Z,101284.96
2019-01-04T14:14:52.911Z,101274.70
2019-01-04T14:17:20.362Z,101274.47
2019-01-04T14:19:47.840Z,101279.45
2019-01-04T14:22:15.296Z,101283.23
2019-01-04T14:24:42.747Z,101271.47
2019-01-04T14:27:10.227Z,101274.52
2019-01-04T14:29:37.728Z,101267.23
2019-01-04T14:32:05.602Z,101263.16
2019-01-04T14:34:33.169Z,101256.66
2019-01-04T14:37:00.633Z,101254.98
2019-01-04T14:39:28.113Z,101254.63
2019-01-04T14:41:55.568Z,101240.45
2019-01-04T14:44:23.018Z,101228.12
2019-01-04T14:46:50.513Z,101240.00
2019-01-04T14:49:17.955Z,101240.31
2019-01-04T14:51:45.423Z,101235.48
2019-01-04T14:54:12.850Z,101230.17
2019-01-04T14:56:40.295Z,101235.19
2019-01-04T14:59:07.744Z,101247.52
2019-01-04T15:01:35.203Z,101251.78
2019-01-04T15:04:03.049Z,101248.72
2019-01-04T15:06:30.531Z,101255.38
2019-01-04T15:08:58.005Z,101258.30
2019-01-04T15:11:25.462Z,101259.67
2019-01-04T15:13:52.905Z,101283.78
2019-01-04T15:16:20.420Z,101287.41
2019-01-04T15:18:48.867Z,101278.78
2019-01-04T15:21:16.331Z,101290.32
2019-01-04T15:23:43.794Z,101284.53
2019-01-04T15:26:11.284Z,101279.75
2019-01-04T15:28:38.768Z,101284.05
2019-01-04T15:31:06.209Z,101282.50
2019-01-04T15:33:33.663Z,101272.20
2019-01-04T15:36:01.111Z,101249.02
2019-01-04T15:38:28.614Z,101247.62
2019-01-04T15:40:56.135Z,101252.64
2019-01-04T15:43:23.598Z,101255.99
2019-01-04T15:45:51.136Z,101253.89
2019-01-04T15:48:18.717Z,101239.46
2019-01-04T15:50:46.207Z,101235.34
2019-01-04T15:53:13.804Z,101229.92
2019-01-04T15:55:41.404Z,101238.57
2019-01-04T15:58:08.843Z,101237.61
2019-01-04T16:00:36.361Z,101250.55
2019-01-04T16:03:03.817Z,101252.80
2019-01-04T16:05:31.244Z,101255.47
2019-01-04T16:07:58.983Z,101256.36
2019-01-04T16:10:26.624Z,101255.73
2019-01-04T16:12:54.125Z,101245.13
2019-01-04T16:15:21.587Z,101231.84
2019-01-04T16:17:49.055Z,101208.19
2019-01-04T16:20:16.543Z,101207.16
2019-01-04T16:22:44.247Z,101203.86
2019-01-04T16:25:11.916Z,101212.95
2019-01-04T16:27:39.552Z,101216.70
2019-01-04T16:30:07.886Z,101207.00
2019-01-04T16:32:35.421Z,101206.45
2019-01-04T16:35:03.831Z,101209.48
2019-01-04T16:37:31.516Z,101219.49
2019-01-04T16:39:59.074Z,101222.45
2019-01-04T16:42:26.660Z,101205.59
2019-01-04T16:44:54.159Z,101210.52
2019-01-04T16:47:22.135Z,101203.22
2019-01-04T16:49:50.489Z,101197.94
2019-01-04T16:52:18.151Z,101198.76
2019-01-04T16:54:45.646Z,101191.02
2019-01-04T16:57:13.275Z,101192.02
2019-01-04T16:59:40.952Z,101194.20
2019-01-04T17:02:08.414Z,101187.56
2019-01-04T17:04:36.025Z,101192.94
2019-01-04T17:07:04.075Z,101189.41
2019-01-04T17:09:31.626Z,101170.80
2019-01-04T17:11:59.146Z,101172.89
2019-01-04T17:14:27.235Z,101168.27
2019-01-04T17:16:54.763Z,101167.68
2019-01-04T17:19:22.276Z,101152.46
2019-01-04T17:21:49.715Z,101153.03
2019-01-04T17:24:17.303Z,101151.36
2019-01-04T17:26:44.929Z,101155.59
2019-01-04T17:29:13.929Z,101156.62
2019-01-04T17:31:41.465Z,101150.05
2019-01-04T17:34:08.943Z,101153.11
2019-01-04T17:36:36.455Z,101156.62
2019-01-04T17:39:04.525Z,101150.59
2019-01-04T17:41:31.961Z,101156.42
2019-01-04T17:43:59.433Z,101161.38
2019-01-04T17:46:26.910Z,101166.28
2019-01-04T17:48:54.608Z,101170.05
2019-01-04T17:51:22.237Z,101170.03
2019-01-04T17:53:49.689Z,101168.13
2019-01-04T17:56:17.419Z,101174.53
2019-01-04T17:58:45.308Z,101163.93
2019-01-04T18:01:13.083Z,101166.70
2019-01-04T18:03:40.534Z,101165.47
2019-01-04T18:06:08.017Z,101168.05
2019-01-04T18:08:35.447Z,101169.02
2019-01-04T18:11:02.905Z,101167.78
2019-01-04T18:13:30.758Z,101172.25
2019-01-04T18:15:59.686Z,101178.68
2019-01-04T18:18:27.527Z,101170.14
2019-01-04T18:20:55.158Z,101168.38
2019-01-04T18:23:22.712Z,101169.56
2019-01-04T18:25:50.186Z,101172.30
2019-01-04T18:28:17.694Z,101171.08
2019-01-04T18:30:45.202Z,101167.16
2019-01-04T18:33:13.796Z,101176.33
2019-01-04T18:35:41.320Z,101171.79
2019-01-04T18:38:08.807Z,101181.04
2019-01-04T18:40:36.505Z,101187.38
2019-01-04T18:43:05.243Z,101190.30
2019-01-04T18:45:32.863Z,101184.09
2019-01-04T18:48:00.351Z,101181.56
2019-01-04T18:50:27.828Z,101188.84
2019-01-04T18:52:55.283Z,101191.29
2019-01-04T18:55:22.754Z,101188.23
2019-01-04T18:57:50.249Z,101188.59
2019-01-04T19:00:17.747Z,101191.22
2019-01-04T19:02:45.202Z,101191.71
2019-01-04T19:05:13.874Z,101185.80
2019-01-04T19:07:41.937Z,101191.23
2019-01-04T19:10:10.295Z,101185.46
2019-01-04T19:12:37.841Z,101185.91
2019-01-04T19:15:05.342Z,101182.22
2019-01-04T19:17:32.830Z,101187.62
2019-01-04T19:20:00.409Z,101188.65
2019-01-04T19:22:28.413Z,101184.27
2019-01-04T19:24:55.935Z,101189.50
2019-01-04T19:27:23.389Z,101187.94
2019-01-04T19:29:50.866Z,101181.02
2019-01-04T19:32:18.345Z,101187.48
2019-01-04T19:34:45.814Z,101181.02
2019-01-04T19:37:13.323Z,101176.37
2019-01-04T19:39:40.822Z,101173.48
2019-01-04T19:42:08.288Z,101164.48
2019-01-04T19:44:35.727Z,101175.03
2019-01-04T19:47:03.221Z,101174.27
2019-01-04T19:49:31.398Z,101172.67
2019-01-04T19:51:58.916Z,101173.89
2019-01-04T19:54:26.383Z,101176.72
2019-01-04T19:56:53.853Z,101182.72
2019-01-04T19:59:21.331Z,101183.26
2019-01-04T20:01:48.791Z,101178.14
2019-01-04T20:04:16.250Z,101174.77
2019-01-04T20:13:54.288Z,101177.05
2019-01-04T20:16:41.875Z,101170.13
2019-01-04T20:19:12.195Z,101168.66
2019-01-04T20:21:54.445Z,101171.35
2019-01-04T20:24:24.487Z,101172.50
2019-01-04T20:26:51.925Z,101176.34
2019-01-04T20:29:20.181Z,101181.45
2019-01-04T20:31:53.323Z,101178.11
2019-01-04T20:34:36.538Z,101175.87
2019-01-04T20:37:20.657Z,101173.86
2019-01-04T20:40:06.918Z,101174.58
2019-01-04T20:42:37.915Z,101167.99
2019-01-04T20:45:06.986Z,101172.72
2019-01-04T20:47:40.112Z,101176.23
2019-01-04T20:50:12.642Z,101175.38
2019-01-04T20:52:56.769Z,101165.75
2019-01-04T20:55:40.188Z,101167.16
2019-01-04T20:58:10.111Z,101163.66
2019-01-04T21:00:43.222Z,101165.42
2019-01-04T21:03:16.204Z,101163.33
2019-01-04T21:05:58.748Z,101164.74
2019-01-04T21:08:31.767Z,101163.98
2019-01-04T21:11:04.997Z,101161.88
2019-01-04T21:13:49.201Z,101161.02
2019-01-04T21:16:36.427Z,101165.87
2019-01-04T21:19:10.322Z,101146.92
2019-01-04T21:21:43.391Z,101144.34
2019-01-04T21:24:17.361Z,101137.69
2019-01-04T21:26:59.841Z,101147.36
2019-01-04T21:29:31.600Z,101151.48
2019-01-04T21:32:14.043Z,101148.62
2019-01-04T21:34:44.319Z,101139.81
2019-01-04T21:37:29.481Z,101139.23
2019-01-04T21:40:02.977Z,101134.34
2019-01-04T21:42:45.372Z,101128.80
2019-01-04T21:45:18.674Z,101128.05
2019-01-04T21:47:50.678Z,101129.66
2019-01-04T21:50:23.662Z,101130.06
2019-01-04T21:52:55.512Z,101132.84
2019-01-04T21:55:25.875Z,101128.58
2019-01-04T21:57:59.026Z,101122.17
2019-01-04T22:00:36.377Z,101123.46
2019-01-04T22:03:22.763Z,101120.30
2019-01-04T22:06:08.961Z,101115.02
2019-01-04T22:08:36.785Z,101108.44
2019-01-04T22:11:09.763Z,101108.64
2019-01-04T22:13:56.635Z,101101.81
2019-01-04T22:16:25.969Z,101100.41
2019-01-04T22:18:58.925Z,101097.60
2019-01-04T22:21:31.349Z,101098.80
2019-01-04T22:24:04.458Z,101089.78
2019-01-04T22:26:34.851Z,101095.06
2019-01-04T22:29:17.207Z,101092.66
2019-01-04T22:31:46.338Z,101091.11
2019-01-04T22:34:24.631Z,101098.39
2019-01-04T22:37:07.271Z,101097.91
2019-01-04T22:39:37.217Z,101102.34
2019-01-04T22:42:23.458Z,101096.97
2019-01-04T22:45:09.804Z,101094.33
2019-01-04T22:47:38.355Z,101085.97
2019-01-04T22:50:25.528Z,101093.92
2019-01-04T22:52:58.905Z,101094.49
2019-01-04T22:55:27.367Z,101093.45
2019-01-04T22:58:00.494Z,101095.80
2019-01-04T23:00:29.633Z,101089.95
2019-01-04T23:03:14.824Z,101087.32
2019-01-04T23:05:42.259Z,101089.20
2019-01-04T23:08:10.100Z,101085.84
2019-01-04T23:10:44.035Z,101084.28
2019-01-04T23:13:13.333Z,101081.37
2019-01-04T23:15:58.607Z,101078.95
2019-01-04T23:18:27.903Z,101080.40
2019-01-04T23:21:00.890Z,101061.39
2019-01-04T23:23:30.730Z,101068.69
2019-01-04T23:26:03.835Z,101071.34
2019-01-04T23:28:34.673Z,101060.80
2019-01-04T23:31:07.794Z,101066.42
2019-01-04T23:33:42.011Z,101064.29
2019-01-04T23:36:27.265Z,101066.09
2019-01-04T23:39:09.604Z,101055.23
2019-01-04T23:41:43.336Z,101054.25
2019-01-04T23:44:22.416Z,101049.48
2019-01-04T23:46:51.759Z,101046.11
2019-01-04T23:49:22.757Z,101042.02
2019-01-04T23:51:55.774Z,101034.67
2019-01-04T23:54:33.878Z,101027.99
2019-01-04T23:57:16.240Z,101033.83
2019-01-04T23:59:49.179Z,101036.06
